Time;durP1;ratioP1;P1;durP2;ratioP2;P2;SDS_P1;SDS_P2;PMS_P1;PMS_P2;Temp;Humidity;BMP_temperature;BMP_pressure;BME280_temperature;BME280_humidity;BME280_pressure;Samples;Min_cycle;Max_cycle;Signal;HPM_P1;HPM_P2
2022/12/07 00:01:39;;;;;;;14.40;12.90;;;12.30;99.90;;;;;;5015289;28;20189;-75
2022/12/07 00:04:11;;;;;;;15.87;12.70;;;12.40;99.90;;;;;;5018899;28;20192;-76
2022/12/07 00:06:42;;;;;;;14.07;12.50;;;12.40;99.90;;;;;;5019922;28;21099;-76
2022/12/07 00:09:14;;;;;;;14.93;13.23;;;12.40;99.90;;;;;;5027320;28;20191;-76
2022/12/07 00:11:40;;;;;;;16.60;12.80;;;12.40;99.90;;;;;;5016968;28;20672;-76
2022/12/07 00:14:11;;;;;;;18.57;14.20;;;12.40;99.90;;;;;;5045802;28;20195;-76
2022/12/07 00:16:38;;;;;;;20.20;13.30;;;12.40;99.90;;;;;;5012720;28;20279;-76
2022/12/07 00:19:05;;;;;;;16.27;13.57;;;12.40;99.90;;;;;;5025015;28;20219;-76
2022/12/07 00:21:35;;;;;;;17.53;14.73;;;12.40;99.90;;;;;;5004416;28;20248;-76
2022/12/07 00:24:03;;;;;;;16.27;14.20;;;12.50;99.90;;;;;;5003642;28;20230;-76
2022/12/07 00:26:35;;;;;;;18.77;13.57;;;12.40;99.90;;;;;;5019347;28;20203;-75
2022/12/07 00:29:15;;;;;;;21.37;14.30;;;12.40;99.90;;;;;;5047853;28;20192;-75
2022/12/07 00:31:41;;;;;;;16.60;14.10;;;12.50;99.90;;;;;;5026185;28;20223;-75
2022/12/07 00:34:14;;;;;;;17.07;14.90;;;12.50;99.90;;;;;;5043928;28;20254;-75
2022/12/07 00:36:41;;;;;;;18.30;15.10;;;12.50;99.90;;;;;;5042637;28;21093;-75
2022/12/07 00:39:08;;;;;;;18.43;15.20;;;12.50;99.90;;;;;;5036110;28;20250;-75
2022/12/07 00:41:34;;;;;;;16.83;14.47;;;12.50;99.90;;;;;;5022436;28;20188;-75
2022/12/07 00:44:01;;;;;;;17.67;15.60;;;12.60;99.90;;;;;;5038579;28;20181;-76
2022/12/07 00:46:27;;;;;;;19.60;15.10;;;12.60;99.90;;;;;;5040786;28;20192;-75
2022/12/07 00:48:55;;;;;;;21.43;15.53;;;12.60;99.90;;;;;;5032059;28;20235;-75
2022/12/07 00:51:24;;;;;;;19.93;15.90;;;12.60;99.90;;;;;;5036773;28;20188;-75
2022/12/07 00:53:51;;;;;;;19.23;16.50;;;12.60;99.90;;;;;;5035722;28;20258;-75
2022/12/07 00:56:27;;;;;;;21.97;15.60;;;12.60;99.90;;;;;;5033390;28;20230;-75
2022/12/07 00:58:56;;;;;;;20.90;16.07;;;12.60;99.90;;;;;;5028123;28;20219;-75
2022/12/07 01:01:25;;;;;;;19.43;16.47;;;12.70;99.90;;;;;;5037055;28;20279;-75
2022/12/07 01:03:52;;;;;;;19.47;15.70;;;12.70;99.90;;;;;;5031618;28;20211;-75
2022/12/07 01:06:21;;;;;;;23.17;16.30;;;12.70;99.90;;;;;;5037924;28;20264;-75
2022/12/07 01:08:48;;;;;;;19.60;16.73;;;12.70;99.90;;;;;;5035181;28;20196;-75
2022/12/07 01:11:19;;;;;;;20.43;16.83;;;12.70;99.90;;;;;;5033201;28;20224;-75
2022/12/07 01:13:46;;;;;;;21.00;17.20;;;12.70;99.90;;;;;;5035384;28;20196;-75
2022/12/07 01:16:17;;;;;;;22.47;17.27;;;12.70;99.90;;;;;;5032986;28;20188;-75
2022/12/07 01:18:49;;;;;;;20.10;16.47;;;12.70;99.90;;;;;;5029150;28;20202;-75
2022/12/07 01:21:37;;;;;;;24.50;16.10;;;12.70;99.90;;;;;;5030004;28;20633;-75
2022/12/07 01:24:08;;;;;;;22.37;16.77;;;12.70;99.90;;;;;;5034108;28;20180;-75
2022/12/07 01:26:35;;;;;;;19.13;15.83;;;12.70;99.90;;;;;;5040540;28;20236;-75
2022/12/07 01:29:01;;;;;;;20.53;15.20;;;12.70;99.90;;;;;;5034062;28;20266;-75
2022/12/07 01:31:29;;;;;;;20.30;16.10;;;12.60;99.90;;;;;;5025563;28;21033;-75
2022/12/07 01:34:00;;;;;;;19.93;15.70;;;12.60;99.90;;;;;;5030290;28;20263;-75
2022/12/07 01:36:34;;;;;;;19.33;14.70;;;12.60;99.90;;;;;;5038504;28;20623;-75
2022/12/07 01:39:06;;;;;;;20.37;15.23;;;12.50;99.90;;;;;;5034110;28;20205;-75
2022/12/07 01:41:40;;;;;;;17.27;15.07;;;12.50;99.90;;;;;;5023720;28;20204;-75
2022/12/07 01:44:22;;;;;;;17.63;14.77;;;12.50;99.90;;;;;;5063566;28;20200;-75
2022/12/07 01:46:58;;;;;;;20.53;14.67;;;12.50;99.90;;;;;;5023034;28;20185;-75
2022/12/07 01:49:48;;;;;;;20.03;15.03;;;12.50;99.90;;;;;;5033334;28;20192;-75
2022/12/07 01:52:28;;;;;;;19.97;15.57;;;12.40;99.90;;;;;;5035869;28;20188;-75
2022/12/07 01:55:03;;;;;;;19.57;14.67;;;12.40;99.90;;;;;;5036044;28;20197;-75
2022/12/07 01:57:34;;;;;;;18.97;15.07;;;12.50;99.90;;;;;;5032033;28;20602;-75
2022/12/07 02:00:01;;;;;;;21.27;14.60;;;12.50;99.90;;;;;;5034913;28;20180;-75
2022/12/07 02:02:34;;;;;;;19.70;14.93;;;12.50;99.90;;;;;;5053061;28;20195;-75
2022/12/07 02:05:05;;;;;;;22.97;15.23;;;12.40;99.90;;;;;;5028159;28;20238;-75
2022/12/07 02:07:37;;;;;;;23.30;15.87;;;12.50;99.90;;;;;;5044380;28;20200;-75
2022/12/07 02:10:31;;;;;;;19.73;15.13;;;12.50;99.90;;;;;;5033689;28;20184;-75
2022/12/07 02:13:09;;;;;;;21.00;14.93;;;12.50;99.90;;;;;;5045550;28;20180;-75
2022/12/07 02:16:11;;;;;;;19.67;15.17;;;12.50;99.90;;;;;;5033881;28;20199;-75
2022/12/07 02:19:34;;;;;;;19.07;15.43;;;12.50;99.90;;;;;;5034188;28;20219;-75
2022/12/07 02:22:51;;;;;;;22.37;15.63;;;12.50;99.90;;;;;;5035926;28;20192;-76
2022/12/07 02:25:34;;;;;;;20.13;15.90;;;12.60;99.90;;;;;;5031256;28;20218;-75
2022/12/07 02:28:41;;;;;;;23.13;16.70;;;12.70;99.90;;;;;;5036518;28;20720;-75
2022/12/07 02:31:21;;;;;;;22.07;15.37;;;12.80;99.90;;;;;;5010949;28;20184;-75
2022/12/07 02:34:02;;;;;;;19.57;15.57;;;12.80;99.90;;;;;;5059270;28;20282;-76
2022/12/07 02:36:46;;;;;;;28.17;15.90;;;12.80;99.90;;;;;;5042684;28;20189;-75
2022/12/07 02:39:22;;;;;;;21.30;15.97;;;12.80;99.90;;;;;;5032710;28;20200;-75
2022/12/07 02:42:02;;;;;;;20.07;15.20;;;12.80;99.90;;;;;;5031312;28;20192;-75
2022/12/07 02:44:30;;;;;;;20.07;16.07;;;12.80;99.90;;;;;;5045488;28;20202;-75
2022/12/07 02:47:05;;;;;;;17.77;14.87;;;12.80;99.90;;;;;;5051946;28;20186;-75
2022/12/07 02:49:33;;;;;;;20.90;15.77;;;12.70;99.90;;;;;;5036208;28;20203;-75
2022/12/07 02:52:00;;;;;;;19.23;15.57;;;12.70;99.90;;;;;;5036605;28;20286;-75
2022/12/07 02:54:27;;;;;;;23.33;15.47;;;12.70;99.90;;;;;;5034822;28;20200;-75
2022/12/07 02:57:41;;;;;;;18.33;16.17;;;12.70;99.90;;;;;;5024952;28;20422;-76
2022/12/07 03:00:14;;;;;;;18.63;15.10;;;12.60;99.90;;;;;;5047791;28;20200;-77
2022/12/07 03:02:59;;;;;;;18.70;14.97;;;12.60;99.90;;;;;;5055779;28;20637;-78
2022/12/07 03:06:05;;;;;;;19.40;14.23;;;12.50;99.90;;;;;;5026995;28;20287;-77
2022/12/07 03:09:07;;;;;;;17.37;13.50;;;12.40;99.90;;;;;;5054208;28;20199;-77
2022/12/07 03:11:58;;;;;;;22.13;14.33;;;12.40;99.90;;;;;;5027564;28;20183;-77
2022/12/07 03:14:33;;;;;;;19.40;14.30;;;12.40;99.90;;;;;;4995408;28;20216;-77
2022/12/07 03:17:16;;;;;;;21.63;13.20;;;12.30;99.90;;;;;;5027072;28;20215;-78
2022/12/07 03:19:44;;;;;;;17.07;13.07;;;12.20;99.90;;;;;;5019938;28;20231;-78
2022/12/07 03:22:14;;;;;;;18.50;13.03;;;12.20;99.90;;;;;;5024425;28;20638;-78
2022/12/07 03:24:52;;;;;;;20.60;12.93;;;12.20;99.90;;;;;;5036604;28;20192;-78
2022/12/07 03:27:58;;;;;;;15.60;12.33;;;12.20;99.90;;;;;;5027586;28;20216;-77
2022/12/07 03:31:00;;;;;;;19.37;11.43;;;12.20;99.90;;;;;;5024817;28;20192;-78
2022/12/07 03:33:36;;;;;;;16.00;11.67;;;12.10;99.90;;;;;;4989895;28;20208;-78
2022/12/07 03:36:21;;;;;;;25.73;12.67;;;12.10;99.90;;;;;;5040654;28;20562;-78
2022/12/07 03:39:32;;;;;;;16.90;13.27;;;12.00;99.90;;;;;;5022108;28;20307;-78
2022/12/07 03:42:02;;;;;;;17.93;12.53;;;12.00;99.90;;;;;;5012048;28;20200;-77
2022/12/07 03:44:29;;;;;;;15.23;11.80;;;12.00;99.90;;;;;;5024129;28;20207;-77
2022/12/07 03:47:16;;;;;;;18.67;12.27;;;12.00;99.90;;;;;;5024529;28;20220;-77
2022/12/07 03:50:28;;;;;;;14.80;12.57;;;12.00;99.90;;;;;;5020336;28;20180;-78
2022/12/07 03:53:08;;;;;;;16.57;12.73;;;12.00;99.90;;;;;;4991243;28;20215;-78
2022/12/07 03:55:43;;;;;;;16.40;12.33;;;12.00;99.90;;;;;;5025085;28;20180;-78
2022/12/07 03:58:18;;;;;;;19.43;11.93;;;11.90;99.90;;;;;;5041757;28;20277;-78
2022/12/07 04:00:47;;;;;;;14.37;11.47;;;12.00;99.90;;;;;;5018002;28;20267;-78
2022/12/07 04:03:13;;;;;;;19.03;11.97;;;11.90;99.90;;;;;;5058018;28;20200;-77
2022/12/07 04:05:40;;;;;;;18.17;12.10;;;11.90;99.90;;;;;;5025949;28;20188;-78
2022/12/07 04:08:07;;;;;;;16.23;11.70;;;11.90;99.90;;;;;;5023399;28;20717;-78
2022/12/07 04:10:35;;;;;;;14.93;12.03;;;11.90;99.90;;;;;;5034995;28;20192;-78
2022/12/07 04:13:01;;;;;;;14.83;11.10;;;11.80;99.90;;;;;;5030084;28;20558;-78
2022/12/07 04:15:28;;;;;;;12.97;10.73;;;11.80;99.90;;;;;;5006710;28;20193;-77
2022/12/07 04:17:54;;;;;;;15.47;10.90;;;11.80;99.90;;;;;;5012812;28;20176;-78
2022/12/07 04:20:21;;;;;;;19.17;11.83;;;11.80;99.90;;;;;;5027902;28;20188;-78
2022/12/07 04:22:47;;;;;;;15.73;11.33;;;11.80;99.90;;;;;;5039533;28;20566;-77
2022/12/07 04:25:15;;;;;;;14.80;10.67;;;11.80;99.90;;;;;;5025295;28;20199;-78
2022/12/07 04:27:41;;;;;;;15.80;11.40;;;11.80;99.90;;;;;;5012135;28;20183;-78
2022/12/07 04:30:09;;;;;;;15.60;11.47;;;11.80;99.90;;;;;;5009715;28;20321;-78
2022/12/07 04:32:35;;;;;;;20.73;11.63;;;11.70;99.90;;;;;;5026467;28;20195;-77
2022/12/07 04:35:03;;;;;;;20.00;11.13;;;11.70;99.90;;;;;;5045283;28;20924;-78
2022/12/07 04:37:30;;;;;;;18.00;12.00;;;11.70;99.90;;;;;;5031143;28;20279;-78
2022/12/07 04:39:56;;;;;;;13.67;11.23;;;11.70;99.90;;;;;;5027259;28;20755;-78
2022/12/07 04:42:22;;;;;;;15.07;11.70;;;11.70;99.90;;;;;;5028266;28;20731;-77
2022/12/07 04:44:48;;;;;;;17.40;11.70;;;11.70;99.90;;;;;;5028186;28;20204;-77
2022/12/07 04:47:15;;;;;;;15.73;11.93;;;11.70;99.90;;;;;;5056527;28;20511;-78
2022/12/07 04:49:42;;;;;;;20.33;12.23;;;11.70;99.90;;;;;;5014432;28;20184;-78
2022/12/07 04:52:09;;;;;;;19.13;10.97;;;11.70;99.90;;;;;;5012598;28;20268;-77
2022/12/07 04:54:36;;;;;;;15.93;11.47;;;11.70;99.90;;;;;;5023574;28;20184;-77
2022/12/07 04:57:03;;;;;;;15.93;11.70;;;11.60;99.90;;;;;;5021576;28;20229;-77
2022/12/07 04:59:29;;;;;;;15.10;11.67;;;11.60;99.90;;;;;;5029589;28;20236;-78
2022/12/07 05:01:56;;;;;;;16.03;11.30;;;11.60;99.90;;;;;;5039151;28;20180;-77
2022/12/07 05:04:22;;;;;;;16.23;11.90;;;11.60;99.90;;;;;;5011920;28;20177;-77
2022/12/07 05:06:50;;;;;;;13.53;10.90;;;11.60;99.90;;;;;;5027027;28;20180;-78
2022/12/07 05:09:18;;;;;;;15.37;11.63;;;11.60;99.90;;;;;;5024460;28;20196;-77
2022/12/07 05:11:47;;;;;;;15.27;10.60;;;11.60;99.90;;;;;;5032530;28;20212;-77
2022/12/07 05:14:19;;;;;;;16.90;10.67;;;11.60;99.90;;;;;;5011170;28;20271;-77
2022/12/07 05:16:49;;;;;;;20.27;12.17;;;11.60;99.90;;;;;;5028133;28;20200;-77
2022/12/07 05:19:16;;;;;;;15.43;11.57;;;11.60;99.90;;;;;;5043955;28;20212;-77
2022/12/07 05:21:43;;;;;;;19.07;11.53;;;11.60;99.90;;;;;;5031616;28;20184;-77
2022/12/07 05:24:13;;;;;;;17.83;11.43;;;11.60;99.90;;;;;;5037206;28;20222;-77
2022/12/07 05:26:40;;;;;;;17.60;12.27;;;11.60;99.90;;;;;;5009947;28;20220;-77
2022/12/07 05:29:06;;;;;;;17.83;11.63;;;11.60;99.90;;;;;;5021713;28;20197;-77
2022/12/07 05:31:33;;;;;;;20.00;12.30;;;11.70;99.90;;;;;;5026781;28;20854;-77
2022/12/07 05:34:00;;;;;;;19.37;11.93;;;11.70;99.90;;;;;;5027844;28;20184;-77
2022/12/07 05:36:28;;;;;;;16.20;11.57;;;11.70;99.90;;;;;;5029141;28;20329;-77
2022/12/07 05:38:54;;;;;;;18.87;12.90;;;11.80;99.90;;;;;;5006062;28;20216;-77
2022/12/07 05:44:07;;;;;;;16.90;11.73;;;11.90;99.90;;;;;;5036529;28;20180;-77
2022/12/07 05:46:34;;;;;;;17.00;12.50;;;11.90;99.90;;;;;;5026051;28;20206;-77
2022/12/07 05:49:01;;;;;;;15.70;12.53;;;11.90;99.90;;;;;;5025797;28;20192;-77
2022/12/07 05:51:28;;;;;;;15.30;11.63;;;12.00;99.90;;;;;;5025859;28;20199;-77
2022/12/07 05:53:54;;;;;;;15.47;12.43;;;12.00;99.90;;;;;;5041715;28;20199;-77
2022/12/07 05:56:21;;;;;;;18.03;12.90;;;12.10;99.90;;;;;;5025357;28;20207;-77
2022/12/07 06:01:33;;;;;;;20.73;13.07;;;12.20;99.90;;;;;;5025795;28;20188;-77
2022/12/07 06:03:59;;;;;;;16.00;12.23;;;12.20;99.90;;;;;;5026783;28;20553;-77
2022/12/07 06:06:26;;;;;;;16.13;12.13;;;12.30;99.90;;;;;;5023895;28;20184;-78
2022/12/07 06:08:52;;;;;;;17.50;12.87;;;12.30;99.90;;;;;;5030590;28;20624;-77
2022/12/07 06:14:04;;;;;;;12.87;11.47;;;12.40;99.90;;;;;;5021640;28;20184;-77
2022/12/07 06:16:31;;;;;;;17.20;12.43;;;12.40;99.90;;;;;;5010155;28;20192;-77
2022/12/07 06:18:58;;;;;;;19.23;11.70;;;12.40;99.90;;;;;;5030795;28;20243;-78
2022/12/07 06:21:26;;;;;;;15.23;11.83;;;12.50;99.90;;;;;;5025103;28;20179;-77
2022/12/07 06:23:53;;;;;;;17.97;11.67;;;12.60;99.90;;;;;;5026862;28;20195;-78
2022/12/07 06:26:20;;;;;;;14.67;10.87;;;12.70;99.90;;;;;;5038757;28;20192;-77
2022/12/07 06:28:47;;;;;;;16.17;11.60;;;12.70;99.90;;;;;;5032456;28;20195;-78
2022/12/07 06:31:13;;;;;;;18.33;12.67;;;12.70;99.90;;;;;;5023265;28;20199;-77
2022/12/07 06:33:39;;;;;;;16.07;11.20;;;12.70;99.90;;;;;;5029322;28;20203;-77
2022/12/07 06:36:06;;;;;;;18.73;11.77;;;12.70;99.90;;;;;;5028309;28;20238;-78
2022/12/07 06:38:32;;;;;;;18.67;12.20;;;12.70;99.90;;;;;;5030673;28;20571;-77
2022/12/07 06:40:59;;;;;;;17.13;11.93;;;12.80;99.90;;;;;;5028098;28;20184;-78
2022/12/07 06:43:26;;;;;;;17.13;11.87;;;12.80;99.90;;;;;;5026168;28;20196;-77
2022/12/07 06:45:52;;;;;;;18.47;12.00;;;12.80;99.90;;;;;;5026085;28;20228;-77
2022/12/07 06:48:18;;;;;;;18.67;11.20;;;12.80;99.90;;;;;;5008878;28;20565;-77
2022/12/07 06:50:48;;;;;;;18.83;11.30;;;12.90;99.90;;;;;;5019376;28;20191;-78
2022/12/07 06:53:14;;;;;;;14.87;11.20;;;12.90;99.90;;;;;;5010051;28;20191;-78
2022/12/07 06:55:41;;;;;;;14.00;10.70;;;12.90;99.90;;;;;;5024776;28;20203;-77
2022/12/07 06:58:07;;;;;;;16.60;12.17;;;13.00;99.90;;;;;;4996291;28;20233;-77
2022/12/07 07:00:35;;;;;;;18.23;11.83;;;13.00;99.90;;;;;;5031705;28;20211;-78
2022/12/07 07:03:02;;;;;;;15.43;11.53;;;13.00;99.90;;;;;;4999085;28;20191;-77
2022/12/07 07:05:28;;;;;;;18.20;11.63;;;13.10;99.90;;;;;;5011495;28;20187;-77
2022/12/07 07:07:54;;;;;;;15.37;10.60;;;13.10;99.90;;;;;;5014924;28;20209;-77
2022/12/07 07:10:21;;;;;;;16.20;11.30;;;13.10;99.90;;;;;;5013107;28;20276;-77
2022/12/07 07:12:48;;;;;;;16.50;11.67;;;13.10;99.90;;;;;;5016796;28;20200;-77
2022/12/07 07:15:14;;;;;;;15.63;11.73;;;13.10;99.90;;;;;;5010562;28;20248;-78
2022/12/07 07:17:40;;;;;;;17.97;11.40;;;13.10;99.90;;;;;;5002816;28;20180;-78
2022/12/07 07:20:07;;;;;;;17.43;11.73;;;13.20;99.90;;;;;;5005758;28;20324;-78
2022/12/07 07:22:34;;;;;;;15.70;11.70;;;13.20;99.90;;;;;;5024603;28;20565;-78
2022/12/07 07:25:00;;;;;;;14.47;10.83;;;13.20;99.90;;;;;;5025959;28;20199;-78
2022/12/07 07:27:27;;;;;;;14.53;11.87;;;13.40;99.90;;;;;;5022185;28;20200;-78
2022/12/07 07:29:53;;;;;;;16.27;11.40;;;13.70;99.90;;;;;;5018989;28;20226;-78
2022/12/07 07:32:21;;;;;;;15.23;11.70;;;13.80;99.90;;;;;;5026397;28;20224;-78
2022/12/07 07:34:48;;;;;;;16.83;11.30;;;13.70;99.90;;;;;;5023306;28;20196;-78
2022/12/07 07:37:14;;;;;;;16.43;11.17;;;13.60;99.90;;;;;;5020230;28;20199;-78
2022/12/07 07:39:42;;;;;;;15.00;11.10;;;13.60;99.90;;;;;;5009179;28;20306;-78
2022/12/07 07:42:08;;;;;;;13.90;10.40;;;13.60;99.90;;;;;;5023898;28;20192;-78
2022/12/07 07:44:35;;;;;;;19.43;10.43;;;13.50;99.90;;;;;;5029114;28;20280;-78
2022/12/07 07:47:02;;;;;;;14.47;10.40;;;13.60;99.90;;;;;;5013234;28;20649;-78
2022/12/07 07:49:29;;;;;;;14.37;10.80;;;13.60;99.90;;;;;;5016251;28;20905;-77
2022/12/07 07:51:55;;;;;;;14.23;10.03;;;13.60;99.90;;;;;;5003155;28;20218;-77
2022/12/07 07:54:22;;;;;;;13.23;10.50;;;13.60;99.90;;;;;;5023993;28;20200;-78
2022/12/07 07:56:48;;;;;;;14.00;10.63;;;13.70;99.90;;;;;;5022436;28;20235;-78
2022/12/07 07:59:15;;;;;;;15.40;10.40;;;13.70;99.90;;;;;;5039971;28;20631;-78
2022/12/07 08:01:42;;;;;;;14.80;10.90;;;13.70;99.90;;;;;;5021229;28;20831;-78
2022/12/07 08:04:08;;;;;;;13.53;10.43;;;13.80;99.90;;;;;;5026421;28;20196;-78
2022/12/07 08:06:37;;;;;;;11.33;9.63;;;13.80;99.90;;;;;;5033614;28;20199;-78
2022/12/07 08:09:05;;;;;;;11.97;8.93;;;13.80;99.90;;;;;;5020921;28;20201;-78
2022/12/07 08:11:32;;;;;;;12.70;9.27;;;13.90;99.90;;;;;;5027877;28;20192;-78
2022/12/07 08:13:58;;;;;;;15.97;9.30;;;14.00;99.90;;;;;;5024858;28;20192;-78
2022/12/07 08:16:24;;;;;;;12.17;8.70;;;14.00;99.90;;;;;;5011599;28;20192;-78
2022/12/07 08:18:50;;;;;;;12.47;9.17;;;14.10;99.90;;;;;;5028607;28;20199;-78
2022/12/07 08:21:17;;;;;;;14.40;8.70;;;14.10;99.90;;;;;;5010610;28;20604;-78
2022/12/07 08:23:43;;;;;;;11.53;8.50;;;14.20;99.90;;;;;;5024822;28;20184;-77
2022/12/07 08:26:14;;;;;;;11.87;7.63;;;14.20;99.90;;;;;;5031307;28;20688;-78
2022/12/07 08:28:41;;;;;;;12.43;8.13;;;14.20;99.90;;;;;;5053966;28;20275;-78
2022/12/07 08:31:14;;;;;;;12.20;8.00;;;14.20;99.90;;;;;;5023624;28;20204;-78
2022/12/07 08:33:41;;;;;;;12.00;7.63;;;14.20;99.90;;;;;;5026404;28;20355;-78
2022/12/07 08:36:11;;;;;;;14.73;8.47;;;14.30;99.90;;;;;;5022437;28;20203;-77
2022/12/07 08:38:41;;;;;;;12.87;8.63;;;14.30;99.90;;;;;;4997918;28;20243;-77
2022/12/07 08:41:08;;;;;;;14.47;8.30;;;14.30;99.90;;;;;;5031611;28;21303;-78
2022/12/07 08:43:36;;;;;;;11.33;8.10;;;14.40;99.90;;;;;;5026552;28;20180;-78
2022/12/07 08:46:38;;;;;;;17.67;8.97;;;14.40;99.90;;;;;;5019625;28;20205;-77
2022/12/07 08:49:36;;;;;;;10.23;8.10;;;14.40;99.90;;;;;;5021313;28;20187;-78
2022/12/07 08:52:05;;;;;;;9.53;7.73;;;14.50;99.90;;;;;;5011559;28;20200;-78
2022/12/07 08:54:38;;;;;;;9.43;7.83;;;14.60;99.90;;;;;;5018811;28;20223;-78
2022/12/07 08:57:06;;;;;;;11.67;7.90;;;14.60;99.90;;;;;;5032532;28;20211;-79
2022/12/07 08:59:36;;;;;;;11.83;7.50;;;14.70;99.90;;;;;;5018562;28;20271;-79
2022/12/07 09:02:07;;;;;;;11.20;7.50;;;14.70;99.90;;;;;;5029529;28;20184;-79
2022/12/07 09:04:33;;;;;;;10.80;7.67;;;14.70;99.90;;;;;;5014172;28;20198;-79
2022/12/07 09:06:59;;;;;;;15.13;8.03;;;14.70;99.90;;;;;;5024228;28;20522;-78
2022/12/07 09:09:25;;;;;;;8.40;6.63;;;14.80;99.90;;;;;;5031311;28;20273;-78
2022/12/07 09:11:52;;;;;;;12.63;7.70;;;14.80;99.90;;;;;;5018313;28;20244;-78
2022/12/07 09:14:19;;;;;;;9.03;6.73;;;14.90;99.90;;;;;;5018408;28;20661;-78
2022/12/07 09:16:45;;;;;;;10.70;7.63;;;15.00;99.90;;;;;;5026844;28;20271;-79
2022/12/07 09:19:11;;;;;;;13.97;7.27;;;15.00;99.90;;;;;;5020230;28;20243;-78
2022/12/07 09:21:37;;;;;;;14.03;7.20;;;15.10;99.90;;;;;;5004180;28;20287;-78
2022/12/07 09:24:04;;;;;;;12.40;7.30;;;15.10;99.90;;;;;;5020638;28;20684;-79
2022/12/07 09:26:30;;;;;;;11.60;7.17;;;15.10;99.90;;;;;;5023692;28;20552;-78
2022/12/07 09:28:56;;;;;;;12.60;7.00;;;15.20;99.90;;;;;;5031233;28;20224;-78
2022/12/07 09:31:23;;;;;;;12.63;6.43;;;15.10;99.90;;;;;;5033571;28;20200;-78
2022/12/07 09:33:55;;;;;;;7.37;6.37;;;15.10;99.90;;;;;;5025706;28;20263;-78
2022/12/07 09:36:22;;;;;;;15.50;6.97;;;15.10;99.90;;;;;;5032274;28;20196;-79
2022/12/07 09:38:48;;;;;;;9.73;6.53;;;15.10;99.90;;;;;;5036659;28;20689;-79
2022/12/07 09:41:15;;;;;;;13.57;7.03;;;15.10;99.90;;;;;;5019505;28;20193;-78
2022/12/07 09:43:42;;;;;;;9.33;6.60;;;15.10;99.90;;;;;;5021219;28;20180;-79
2022/12/07 09:46:18;;;;;;;10.20;6.57;;;15.10;99.90;;;;;;5049278;28;20219;-79
2022/12/07 09:48:46;;;;;;;12.57;6.60;;;15.10;99.90;;;;;;5024632;28;20279;-79
2022/12/07 09:51:21;;;;;;;10.70;6.57;;;15.10;99.90;;;;;;5015037;28;20204;-79
2022/12/07 09:53:49;;;;;;;9.73;6.50;;;15.20;99.90;;;;;;5005125;28;20290;-79
2022/12/07 09:56:18;;;;;;;11.07;6.47;;;15.20;99.90;;;;;;5027750;28;20191;-78
2022/12/07 09:58:46;;;;;;;10.43;6.43;;;15.20;99.90;;;;;;5021217;28;20299;-79
2022/12/07 10:01:19;;;;;;;9.60;6.13;;;15.20;99.90;;;;;;5020652;28;20207;-78
2022/12/07 10:04:10;;;;;;;7.87;6.50;;;15.20;99.90;;;;;;5048961;28;20690;-79
2022/12/07 10:06:37;;;;;;;16.43;6.10;;;15.20;99.90;;;;;;5020771;28;20258;-79
2022/12/07 10:09:14;;;;;;;8.20;6.27;;;15.20;99.90;;;;;;5021332;28;20200;-79
2022/12/07 10:12:09;;;;;;;8.17;6.00;;;15.20;99.90;;;;;;5017001;28;20188;-78
2022/12/07 10:15:10;;;;;;;8.73;6.17;;;15.20;99.90;;;;;;5019262;28;20273;-79
2022/12/07 10:17:43;;;;;;;10.47;6.00;;;15.30;99.90;;;;;;5013052;28;20928;-79
2022/12/07 10:20:19;;;;;;;9.33;5.70;;;15.40;99.90;;;;;;5030484;28;20222;-79
2022/12/07 10:23:05;;;;;;;9.07;6.03;;;15.50;99.90;;;;;;5018684;28;20270;-79
2022/12/07 10:25:35;;;;;;;8.33;5.83;;;15.50;99.90;;;;;;5021692;28;20191;-79
2022/12/07 10:28:16;;;;;;;10.53;6.47;;;15.60;99.90;;;;;;5002930;28;20183;-79
2022/12/07 10:31:04;;;;;;;11.07;6.00;;;15.70;99.90;;;;;;5021903;28;20192;-79
2022/12/07 10:33:59;;;;;;;11.67;6.03;;;15.80;99.90;;;;;;5039809;28;20236;-78
2022/12/07 10:36:26;;;;;;;10.27;5.50;;;15.90;99.90;;;;;;5009004;28;20308;-79
2022/12/07 10:38:59;;;;;;;9.70;5.00;;;15.90;99.90;;;;;;5021531;28;20302;-78
2022/12/07 10:41:25;;;;;;;8.60;5.27;;;15.90;99.90;;;;;;5004452;28;20189;-79
2022/12/07 10:43:57;;;;;;;7.37;5.00;;;15.90;99.90;;;;;;5014174;28;20200;-79
2022/12/07 10:46:49;;;;;;;8.23;5.03;;;15.80;99.90;;;;;;5026852;28;20198;-79
2022/12/07 10:49:36;;;;;;;7.33;5.23;;;15.90;99.90;;;;;;5006559;28;20216;-79
2022/12/07 10:52:27;;;;;;;6.30;4.87;;;15.80;99.90;;;;;;5005040;28;20813;-78
2022/12/07 10:55:49;;;;;;;14.13;5.20;;;15.90;99.90;;;;;;5016282;28;20196;-79
2022/12/07 10:59:06;;;;;;;7.87;5.17;;;15.90;99.90;;;;;;5014303;28;20263;-79
2022/12/07 11:01:57;;;;;;;10.27;5.17;;;16.10;99.90;;;;;;5002935;28;20199;-79
2022/12/07 11:04:59;;;;;;;12.40;5.33;;;16.40;99.90;;;;;;5021500;28;20272;-79
2022/12/07 11:08:01;;;;;;;9.70;5.00;;;16.70;99.90;;;;;;4991940;28;20283;-79
2022/12/07 11:10:54;;;;;;;5.67;4.43;;;16.80;99.90;;;;;;5021087;28;20254;-79
2022/12/07 11:13:37;;;;;;;8.47;4.90;;;16.80;99.90;;;;;;5023193;28;20184;-79
2022/12/07 11:16:36;;;;;;;7.43;4.57;;;16.80;99.90;;;;;;5016269;28;20246;-79
2022/12/07 11:19:33;;;;;;;8.13;4.72;;;16.90;99.90;;;;;;5008017;28;20243;-79
2022/12/07 11:22:13;;;;;;;7.83;5.30;;;16.90;99.90;;;;;;5031424;28;20219;-79
2022/12/07 11:25:00;;;;;;;8.87;4.73;;;16.90;99.90;;;;;;5015239;28;20351;-79
2022/12/07 11:27:54;;;;;;;9.33;5.10;;;16.80;99.90;;;;;;5013042;28;20216;-79
2022/12/07 11:30:33;;;;;;;5.93;4.07;;;16.80;99.90;;;;;;5024645;28;20557;-79
2022/12/07 11:33:17;;;;;;;5.33;4.30;;;16.70;99.90;;;;;;5026675;28;20967;-79
2022/12/07 11:36:22;;;;;;;8.00;4.40;;;16.60;99.90;;;;;;5025355;28;20188;-79
2022/12/07 11:38:55;;;;;;;7.93;4.40;;;16.50;99.90;;;;;;5023648;28;20212;-79
2022/12/07 11:41:37;;;;;;;9.03;4.33;;;16.40;99.90;;;;;;5044020;28;20642;-79
2022/12/07 11:44:26;;;;;;;7.63;4.83;;;16.30;99.90;;;;;;5008203;28;20202;-79
2022/12/07 11:47:11;;;;;;;9.30;4.43;;;16.30;99.90;;;;;;5025273;28;20671;-79
2022/12/07 11:49:54;;;;;;;7.97;4.63;;;16.30;99.90;;;;;;5013064;28;20191;-79
2022/12/07 11:52:49;;;;;;;9.47;4.80;;;16.30;99.90;;;;;;5028407;28;20287;-79
2022/12/07 11:55:53;;;;;;;8.27;4.37;;;16.40;99.90;;;;;;5030010;28;20558;-79
2022/12/07 11:58:49;;;;;;;6.97;4.57;;;16.40;99.90;;;;;;5025806;28;20298;-79
2022/12/07 12:01:38;;;;;;;10.53;4.20;;;16.30;99.90;;;;;;5024508;28;20194;-78
2022/12/07 12:04:10;;;;;;;8.37;4.10;;;16.30;99.90;;;;;;5019158;28;20199;-79
2022/12/07 12:06:43;;;;;;;6.60;3.70;;;16.30;99.90;;;;;;5018538;28;20196;-79
2022/12/07 12:09:21;;;;;;;5.37;4.00;;;16.30;99.90;;;;;;5013720;28;20608;-79
2022/12/07 12:12:19;;;;;;;7.80;4.00;;;16.40;99.90;;;;;;5001403;28;20227;-79
2022/12/07 12:15:06;;;;;;;5.20;4.13;;;16.40;99.90;;;;;;5022520;28;20192;-78
2022/12/07 12:18:06;;;;;;;7.20;4.10;;;16.50;99.90;;;;;;5012392;28;20713;-78
2022/12/07 12:20:40;;;;;;;7.67;4.20;;;16.50;99.90;;;;;;5020322;28;20522;-79
2022/12/07 12:23:15;;;;;;;7.83;4.23;;;16.50;99.90;;;;;;5025643;28;20188;-79
2022/12/07 12:26:17;;;;;;;9.13;4.10;;;16.40;99.90;;;;;;5021639;28;20552;-78
2022/12/07 12:29:04;;;;;;;7.37;3.80;;;16.20;99.90;;;;;;5015969;28;20200;-78
2022/12/07 12:31:37;;;;;;;6.63;4.23;;;16.10;99.90;;;;;;5022841;28;20188;-79
2022/12/07 12:34:34;;;;;;;5.27;3.90;;;16.10;99.90;;;;;;5039363;28;20258;-79
2022/12/07 12:37:00;;;;;;;6.83;4.47;;;16.00;99.90;;;;;;4987136;28;20196;-79
2022/12/07 12:39:27;;;;;;;6.77;4.20;;;16.00;99.90;;;;;;5020235;28;20219;-79
2022/12/07 12:44:29;;;;;;;6.20;4.20;;;15.90;99.90;;;;;;5027593;28;20879;-79
2022/12/07 12:46:58;;;;;;;5.63;3.80;;;15.90;99.90;;;;;;5032062;28;20198;-79
2022/12/07 12:49:26;;;;;;;6.97;4.23;;;15.90;99.90;;;;;;5025149;28;20200;-78
2022/12/07 12:52:21;;;;;;;7.77;4.30;;;15.80;99.90;;;;;;5032481;28;20199;-79
2022/12/07 12:55:17;;;;;;;7.10;4.33;;;15.80;99.90;;;;;;5024279;28;20561;-79
2022/12/07 12:57:43;;;;;;;9.63;4.00;;;15.80;99.90;;;;;;5016378;28;20208;-78
2022/12/07 13:00:21;;;;;;;6.63;3.90;;;15.80;99.90;;;;;;5009639;28;20216;-78
2022/12/07 13:02:59;;;;;;;10.23;4.03;;;15.80;99.90;;;;;;5006417;28;20958;-78
2022/12/07 13:05:29;;;;;;;7.90;4.10;;;15.90;99.90;;;;;;5022281;28;20189;-79
2022/12/07 13:08:18;;;;;;;7.97;4.23;;;15.90;99.90;;;;;;5032834;28;20200;-78
2022/12/07 13:10:47;;;;;;;6.83;4.03;;;16.00;99.90;;;;;;5043716;28;20198;-78
2022/12/07 13:13:18;;;;;;;6.50;4.50;;;16.00;99.90;;;;;;5017500;28;20595;-79
2022/12/07 13:15:49;;;;;;;7.53;4.37;;;16.00;99.90;;;;;;5026743;28;20184;-79
2022/12/07 13:18:27;;;;;;;8.93;4.40;;;15.90;99.90;;;;;;5025449;28;20184;-78
2022/12/07 13:21:00;;;;;;;7.90;4.53;;;15.90;99.90;;;;;;5028561;28;20301;-78